createdAt,value
2019-01-14T00:01:46.086Z,92.80
2019-01-14T00:04:16.526Z,93.10
2019-01-14T00:06:47.029Z,93.30
2019-01-14T00:09:23.085Z,93.90
2019-01-14T00:11:49.273Z,94.40
2019-01-14T00:14:19.744Z,94.40
2019-01-14T00:16:50.230Z,94.30
2019-01-14T00:19:20.766Z,94.60
2019-01-14T00:21:51.188Z,94.80
2019-01-14T00:24:21.567Z,94.90
2019-01-14T00:26:53.567Z,95.20
2019-01-14T00:29:23.973Z,95.30
2019-01-14T00:31:54.730Z,95.40
2019-01-14T00:34:25.469Z,95.70
2019-01-14T00:36:56.036Z,95.70
2019-01-14T00:39:26.460Z,95.80
2019-01-14T00:41:56.852Z,96.00
2019-01-14T00:44:27.372Z,96.20
2019-01-14T00:46:57.684Z,96.90
2019-01-14T00:49:29.666Z,97.00
2019-01-14T00:52:00.026Z,97.60
2019-01-14T00:54:30.494Z,98.80
2019-01-14T00:57:00.977Z,98.80
2019-01-14T00:59:31.344Z,98.70
2019-01-14T01:02:01.709Z,98.90
2019-01-14T01:04:32.046Z,98.70
2019-01-14T01:07:02.370Z,99.30
2019-01-14T01:09:32.815Z,99.90
2019-01-14T01:12:03.253Z,99.90
2019-01-14T01:14:33.901Z,99.90
2019-01-14T01:17:04.286Z,99.80
2019-01-14T01:19:34.774Z,99.90
2019-01-14T01:22:05.214Z,99.90
2019-01-14T01:24:35.580Z,99.90
2019-01-14T01:27:06.290Z,99.90
2019-01-14T01:29:36.794Z,99.90
2019-01-14T01:32:07.236Z,99.90
2019-01-14T01:34:37.596Z,99.90
2019-01-14T01:37:08.160Z,99.90
2019-01-14T01:39:38.518Z,99.90
2019-01-14T01:42:08.863Z,99.90
2019-01-14T01:44:39.382Z,99.90
2019-01-14T01:47:09.877Z,99.90
2019-01-14T01:49:42.036Z,99.90
2019-01-14T01:52:12.377Z,99.90
2019-01-14T01:54:42.742Z,99.90
2019-01-14T01:57:13.211Z,99.90
2019-01-14T01:59:43.596Z,99.90
2019-01-14T02:02:14.141Z,99.90
2019-01-14T02:04:44.480Z,99.90
2019-01-14T02:07:14.878Z,99.90
2019-01-14T02:09:45.305Z,99.90
2019-01-14T02:12:15.642Z,99.90
2019-01-14T02:14:46.064Z,99.90
2019-01-14T02:17:16.562Z,99.90
2019-01-14T02:19:46.961Z,99.90
2019-01-14T02:22:17.618Z,99.90
2019-01-14T02:24:47.991Z,99.90
2019-01-14T02:27:18.468Z,99.90
2019-01-14T02:29:48.819Z,99.90
2019-01-14T02:32:19.302Z,99.90
2019-01-14T02:34:49.709Z,99.90
2019-01-14T02:37:20.066Z,99.90
2019-01-14T02:39:50.534Z,99.90
2019-01-14T02:42:20.890Z,99.90
2019-01-14T02:44:51.208Z,99.90
2019-01-14T02:47:21.576Z,99.90
2019-01-14T02:49:52.171Z,99.90
2019-01-14T02:52:22.526Z,99.90
2019-01-14T02:54:52.909Z,99.90
2019-01-14T02:57:23.441Z,99.90
2019-01-14T02:59:53.775Z,99.90
2019-01-14T03:02:24.137Z,99.90
2019-01-14T03:05:01.625Z,99.90
2019-01-14T03:07:46.126Z,99.90
2019-01-14T03:10:16.893Z,99.90
2019-01-14T03:12:47.285Z,99.90
2019-01-14T03:15:18.718Z,99.90
2019-01-14T03:17:49.135Z,99.90
2019-01-14T03:20:19.770Z,99.90
2019-01-14T03:22:50.170Z,99.90
2019-01-14T03:25:20.554Z,99.90
2019-01-14T03:27:50.926Z,99.90
2019-01-14T03:30:21.926Z,99.90
2019-01-14T03:32:52.260Z,99.90
2019-01-14T03:35:22.599Z,99.90
2019-01-14T03:37:53.027Z,99.90
2019-01-14T03:40:23.339Z,99.90
2019-01-14T03:42:53.850Z,99.90
2019-01-14T03:45:24.316Z,99.90
2019-01-14T03:47:54.712Z,99.90
2019-01-14T03:50:25.413Z,99.90
2019-01-14T03:52:57.181Z,99.90
2019-01-14T03:55:27.984Z,99.90
2019-01-14T03:57:59.239Z,99.90
2019-01-14T04:00:29.563Z,99.90
2019-01-14T04:02:59.993Z,99.90
2019-01-14T04:05:32.430Z,99.90
2019-01-14T04:08:02.326Z,99.90
2019-01-14T04:10:33.748Z,99.90
2019-01-14T04:13:04.154Z,99.90
2019-01-14T04:15:34.663Z,99.90
2019-01-14T04:18:04.999Z,99.90
2019-01-14T04:20:35.539Z,99.90
2019-01-14T04:23:05.981Z,99.90
2019-01-14T04:25:41.771Z,99.90
2019-01-14T04:28:11.712Z,99.90
2019-01-14T04:30:49.274Z,99.90
2019-01-14T04:33:19.627Z,99.90
2019-01-14T04:35:56.588Z,99.90
2019-01-14T04:38:27.062Z,99.90
2019-01-14T04:41:04.539Z,99.90
2019-01-14T04:43:42.903Z,99.90
2019-01-14T04:46:07.342Z,99.90
2019-01-14T04:48:38.695Z,99.90
2019-01-14T04:51:09.383Z,99.90
2019-01-14T04:53:40.318Z,99.90
2019-01-14T04:56:10.669Z,99.90
2019-01-14T04:58:44.075Z,99.90
2019-01-14T05:01:14.407Z,99.90
2019-01-14T05:03:47.683Z,99.90
2019-01-14T05:06:18.144Z,99.90
2019-01-14T05:08:51.683Z,99.90
2019-01-14T05:11:22.197Z,99.90
2019-01-14T05:13:53.118Z,99.90
2019-01-14T05:16:23.533Z,99.90
2019-01-14T05:18:54.641Z,99.90
2019-01-14T05:21:25.054Z,99.90
2019-01-14T05:23:55.443Z,99.90
2019-01-14T05:26:25.877Z,99.90
2019-01-14T05:28:56.295Z,99.90
2019-01-14T05:31:26.611Z,99.90
2019-01-14T05:33:57.268Z,99.90
2019-01-14T05:36:27.651Z,99.90
2019-01-14T05:38:58.054Z,99.90
2019-01-14T05:41:28.476Z,99.90
2019-01-14T05:43:58.985Z,99.90
2019-01-14T05:46:31.475Z,99.90
2019-01-14T05:49:01.893Z,99.90
2019-01-14T05:51:32.901Z,99.90
2019-01-14T05:54:03.282Z,99.90
2019-01-14T05:56:33.644Z,99.90
2019-01-14T05:59:05.586Z,99.90
2019-01-14T06:01:36.091Z,99.90
2019-01-14T06:04:07.072Z,99.90
2019-01-14T06:06:37.508Z,99.90
2019-01-14T06:09:08.917Z,99.90
2019-01-14T06:11:39.297Z,99.90
2019-01-14T06:14:09.818Z,99.90
2019-01-14T06:16:40.281Z,99.90
2019-01-14T06:19:11.148Z,99.90
2019-01-14T06:21:43.564Z,99.90
2019-01-14T06:24:13.981Z,99.90
2019-01-14T06:26:48.506Z,99.90
2019-01-14T06:29:18.941Z,99.90
2019-01-14T06:31:50.099Z,99.90
2019-01-14T06:34:20.620Z,99.90
2019-01-14T06:36:56.930Z,99.90
2019-01-14T06:39:26.096Z,99.90
2019-01-14T06:41:59.775Z,99.90
2019-01-14T06:44:29.693Z,99.90
2019-01-14T06:47:01.909Z,99.90
2019-01-14T06:49:38.011Z,99.90
2019-01-14T06:52:08.813Z,99.90
2019-01-14T06:55:00.039Z,99.90
2019-01-14T06:57:30.729Z,99.90
2019-01-14T07:00:02.706Z,99.90
2019-01-14T07:02:35.759Z,99.90
2019-01-14T07:05:08.410Z,99.90
2019-01-14T07:07:42.243Z,99.90
2019-01-14T07:10:35.013Z,99.90
2019-01-14T07:13:05.661Z,99.90
2019-01-14T07:15:36.637Z,99.90
2019-01-14T07:18:08.044Z,99.90
2019-01-14T07:20:38.481Z,99.90
2019-01-14T07:23:08.858Z,99.90
2019-01-14T07:25:39.392Z,99.90
2019-01-14T07:28:09.752Z,99.90
2019-01-14T07:30:40.059Z,99.90
2019-01-14T07:33:10.513Z,99.90
2019-01-14T07:35:40.860Z,99.90
2019-01-14T07:38:11.335Z,99.90
2019-01-14T07:40:41.812Z,99.90
2019-01-14T07:43:12.137Z,99.90
2019-01-14T07:45:42.579Z,99.90
2019-01-14T07:48:12.878Z,99.90
2019-01-14T07:50:43.253Z,99.90
2019-01-14T07:53:13.915Z,99.90
2019-01-14T07:55:47.372Z,99.90
2019-01-14T07:58:17.457Z,99.90
2019-01-14T08:00:47.807Z,99.90
2019-01-14T08:03:18.159Z,99.90
2019-01-14T08:05:48.597Z,99.90
2019-01-14T08:08:18.894Z,99.90
2019-01-14T08:10:49.289Z,99.90
2019-01-14T08:13:19.894Z,99.90
2019-01-14T08:15:50.273Z,99.90
2019-01-14T08:18:20.613Z,99.90
2019-01-14T08:20:51.544Z,99.90
2019-01-14T08:23:22.000Z,99.90
2019-01-14T08:25:52.472Z,99.90
2019-01-14T08:28:22.897Z,99.90
2019-01-14T08:30:53.271Z,99.90
2019-01-14T08:33:23.711Z,99.90
2019-01-14T08:35:55.807Z,99.90
2019-01-14T08:38:26.279Z,99.90
2019-01-14T08:41:00.049Z,99.90
2019-01-14T08:43:33.812Z,99.90
2019-01-14T08:46:05.156Z,99.90
2019-01-14T08:48:40.543Z,99.90
2019-01-14T08:51:11.069Z,99.90
2019-01-14T08:53:42.423Z,99.90
2019-01-14T08:56:12.809Z,99.90
2019-01-14T08:58:44.735Z,99.90
2019-01-14T09:01:16.606Z,99.90
2019-01-14T09:03:46.981Z,99.90
2019-01-14T09:06:17.325Z,99.90
2019-01-14T09:08:47.687Z,99.90
2019-01-14T09:11:17.982Z,99.90
2019-01-14T09:13:48.357Z,99.90
2019-01-14T09:16:18.804Z,99.90
2019-01-14T09:18:49.194Z,99.90
2019-01-14T09:21:19.583Z,99.90
2019-01-14T09:23:49.938Z,99.90
2019-01-14T09:26:20.401Z,99.90
2019-01-14T09:28:50.793Z,99.90
2019-01-14T09:31:22.550Z,99.90
2019-01-14T09:33:53.205Z,99.90
2019-01-14T09:36:23.573Z,99.90
2019-01-14T09:38:53.973Z,99.90
2019-01-14T09:41:24.392Z,99.90
2019-01-14T09:43:54.783Z,99.90
2019-01-14T09:46:25.213Z,99.90
2019-01-14T09:48:55.706Z,99.90
2019-01-14T09:51:26.031Z,99.90
2019-01-14T09:53:57.926Z,99.90
2019-01-14T09:56:28.798Z,99.90
2019-01-14T09:58:59.180Z,99.90
2019-01-14T10:01:29.582Z,99.90
2019-01-14T10:04:00.096Z,99.90
2019-01-14T10:06:30.964Z,99.90
2019-01-14T10:09:01.299Z,99.90
2019-01-14T10:11:31.707Z,99.90
2019-01-14T10:14:02.080Z,99.90
2019-01-14T10:16:32.428Z,99.90
2019-01-14T10:19:02.911Z,99.90
2019-01-14T10:21:33.238Z,99.90
2019-01-14T10:24:03.653Z,99.90
2019-01-14T10:26:34.042Z,99.90
2019-01-14T10:29:04.455Z,99.90
2019-01-14T10:31:34.944Z,99.90
2019-01-14T10:34:05.338Z,99.90
2019-01-14T10:36:35.899Z,99.90
2019-01-14T10:39:08.399Z,99.90
2019-01-14T10:41:38.812Z,99.90
2019-01-14T10:44:09.124Z,99.90
2019-01-14T10:46:39.513Z,99.90
2019-01-14T10:49:09.917Z,99.90
2019-01-14T10:51:40.339Z,99.90
2019-01-14T10:54:11.037Z,99.90
2019-01-14T10:56:44.034Z,99.90
2019-01-14T10:59:13.431Z,99.90
2019-01-14T11:01:46.714Z,99.90
2019-01-14T11:04:17.059Z,99.90
2019-01-14T11:06:47.376Z,99.90
2019-01-14T11:09:17.733Z,99.90
2019-01-14T11:11:48.875Z,99.90
2019-01-14T11:14:19.245Z,99.90
2019-01-14T11:16:49.667Z,99.90
2019-01-14T11:19:19.981Z,99.90
2019-01-14T11:21:50.310Z,99.90
2019-01-14T11:24:21.124Z,99.90
2019-01-14T11:26:51.489Z,99.90
2019-01-14T11:29:21.932Z,99.90
2019-01-14T11:31:52.320Z,99.90
2019-01-14T11:34:22.757Z,99.90
2019-01-14T11:36:53.115Z,99.90
2019-01-14T11:39:23.541Z,99.90
2019-01-14T11:41:53.894Z,99.90
2019-01-14T11:44:24.240Z,99.90
2019-01-14T11:46:54.810Z,99.90
2019-01-14T11:49:25.096Z,99.90
2019-01-14T11:51:55.544Z,99.90
2019-01-14T11:54:25.958Z,99.90
2019-01-14T11:56:57.108Z,99.90
2019-01-14T11:59:27.591Z,99.90
2019-01-14T12:01:57.954Z,99.90
2019-01-14T12:04:28.456Z,99.90
2019-01-14T12:06:58.767Z,99.90
2019-01-14T12:09:29.082Z,99.90
2019-01-14T12:11:59.454Z,99.90
2019-01-14T12:14:29.843Z,99.90
2019-01-14T12:17:00.270Z,99.90
2019-01-14T12:19:30.594Z,99.90
2019-01-14T12:22:00.967Z,99.90
2019-01-14T12:24:31.682Z,99.90
2019-01-14T12:27:02.002Z,99.90
2019-01-14T12:29:32.406Z,99.90
2019-01-14T12:32:02.801Z,99.90
2019-01-14T12:34:33.186Z,99.90
2019-01-14T12:37:03.605Z,99.90
2019-01-14T12:39:33.970Z,99.90
2019-01-14T12:42:04.503Z,99.90
2019-01-14T12:44:34.815Z,99.90
2019-01-14T12:47:05.144Z,99.90
2019-01-14T12:49:35.615Z,99.90
2019-01-14T12:52:06.480Z,99.90
2019-01-14T12:54:36.952Z,99.90
2019-01-14T12:57:07.257Z,99.90
2019-01-14T12:59:37.615Z,99.90
2019-01-14T13:02:08.127Z,99.90
2019-01-14T13:04:38.691Z,99.90
2019-01-14T13:07:09.159Z,99.90
2019-01-14T13:09:39.505Z,99.90
2019-01-14T13:12:09.847Z,99.90
2019-01-14T13:14:40.317Z,99.90
2019-01-14T13:17:10.660Z,99.90
2019-01-14T13:19:42.208Z,99.90
2019-01-14T13:22:12.573Z,99.90
2019-01-14T13:24:44.531Z,99.90
2019-01-14T13:27:14.930Z,99.90
2019-01-14T13:29:45.268Z,99.90
2019-01-14T13:32:15.753Z,99.90
2019-01-14T13:34:46.135Z,99.90
2019-01-14T13:37:16.649Z,99.90
2019-01-14T13:39:46.938Z,99.90
2019-01-14T13:42:18.968Z,99.90
2019-01-14T13:44:49.494Z,99.90
2019-01-14T13:47:19.895Z,99.90
2019-01-14T13:49:50.344Z,99.90
2019-01-14T13:52:20.682Z,99.90
2019-01-14T13:54:51.181Z,99.90
2019-01-14T13:57:31.229Z,99.90
2019-01-14T14:00:02.189Z,99.90
2019-01-14T14:02:34.698Z,99.90
2019-01-14T14:05:05.968Z,99.90
2019-01-14T14:07:36.899Z,99.90
2019-01-14T14:10:13.252Z,99.90
2019-01-14T14:12:45.544Z,99.90
2019-01-14T14:15:18.326Z,99.90
2019-01-14T14:17:49.281Z,99.90
2019-01-14T14:20:20.346Z,99.90
2019-01-14T14:22:51.182Z,99.90
2019-01-14T14:25:22.000Z,99.90
2019-01-14T14:27:52.594Z,99.90
2019-01-14T14:30:36.289Z,99.90
2019-01-14T14:33:06.833Z,99.90
2019-01-14T14:35:37.307Z,99.90
2019-01-14T14:38:08.753Z,99.90
2019-01-14T14:40:39.301Z,99.90
2019-01-14T14:43:10.158Z,99.90
2019-01-14T14:45:40.967Z,99.90
2019-01-14T14:48:14.283Z,99.90
2019-01-14T14:50:44.773Z,99.90
2019-01-14T14:53:15.517Z,99.90
2019-01-14T14:56:03.068Z,99.90
2019-01-14T14:58:33.775Z,99.90
2019-01-14T15:01:04.486Z,99.90
2019-01-14T15:03:35.063Z,99.90
2019-01-14T15:06:07.087Z,99.90
2019-01-14T15:08:39.193Z,99.90
2019-01-14T15:11:12.747Z,99.90
2019-01-14T15:13:43.256Z,99.90
2019-01-14T15:16:14.061Z,99.90
2019-01-14T15:18:44.722Z,99.90
2019-01-14T15:21:15.281Z,99.90
2019-01-14T15:23:45.761Z,99.90
2019-01-14T15:26:16.363Z,99.90
2019-01-14T15:28:48.755Z,99.90
2019-01-14T15:31:19.182Z,99.90
2019-01-14T15:33:51.173Z,99.90
2019-01-14T15:36:21.845Z,99.90
2019-01-14T15:38:56.490Z,99.90
2019-01-14T15:41:30.317Z,99.90
2019-01-14T15:44:00.946Z,99.90
2019-01-14T15:46:33.859Z,99.90
2019-01-14T15:49:04.628Z,99.90
2019-01-14T15:51:37.190Z,99.90
2019-01-14T15:54:14.298Z,99.90
2019-01-14T15:56:45.767Z,99.90
2019-01-14T15:59:16.205Z,99.90
2019-01-14T16:01:46.553Z,99.90
2019-01-14T16:04:21.357Z,99.90
2019-01-14T16:06:48.905Z,99.90
2019-01-14T16:09:27.033Z,99.90
2019-01-14T16:12:04.684Z,99.90
2019-01-14T16:14:40.811Z,98.90
2019-01-14T16:17:11.242Z,98.40
2019-01-14T16:19:43.050Z,97.40
2019-01-14T16:22:20.036Z,96.60
2019-01-14T16:24:50.176Z,95.40
2019-01-14T16:27:20.686Z,94.40
2019-01-14T16:29:51.175Z,93.00
2019-01-14T16:32:29.583Z,92.20
2019-01-14T16:35:01.201Z,92.40
2019-01-14T16:37:33.914Z,91.80
2019-01-14T16:40:05.833Z,91.10
2019-01-14T16:42:36.425Z,91.00
2019-01-14T16:45:12.631Z,90.60
2019-01-14T16:47:46.902Z,90.10
2019-01-14T16:50:18.126Z,90.10
2019-01-14T16:52:57.606Z,90.00
2019-01-14T16:55:38.352Z,90.40
2019-01-14T16:58:09.074Z,90.80
2019-01-14T17:00:39.857Z,91.10
2019-01-14T17:03:16.371Z,91.10
2019-01-14T17:05:46.947Z,91.10
2019-01-14T17:08:17.438Z,90.70
2019-01-14T17:10:51.074Z,90.40
2019-01-14T17:13:21.413Z,88.10
2019-01-14T17:15:51.999Z,87.60
2019-01-14T17:18:22.492Z,87.40
2019-01-14T17:20:52.879Z,86.10
2019-01-14T17:23:23.292Z,85.70
2019-01-14T17:25:53.971Z,84.30
2019-01-14T17:28:30.550Z,84.50
2019-01-14T17:31:03.753Z,84.90
2019-01-14T17:33:34.231Z,84.20
2019-01-14T17:36:04.688Z,84.60
2019-01-14T17:38:35.306Z,84.10
2019-01-14T17:41:05.846Z,83.50
2019-01-14T17:43:36.381Z,83.40
2019-01-14T17:46:06.983Z,84.30
2019-01-14T17:48:37.520Z,81.50
2019-01-14T17:51:08.045Z,79.70
2019-01-14T17:53:38.790Z,79.00
2019-01-14T17:56:18.458Z,78.30
2019-01-14T17:59:12.057Z,78.00
2019-01-14T18:01:54.490Z,77.10
2019-01-14T18:04:28.188Z,75.00
2019-01-14T18:07:01.478Z,75.30
2019-01-14T18:09:32.121Z,75.10
2019-01-14T18:12:02.789Z,74.40
2019-01-14T18:14:41.660Z,73.90
2019-01-14T18:17:12.118Z,72.70
2019-01-14T18:19:43.978Z,73.40
2019-01-14T18:22:14.338Z,75.60
2019-01-14T18:24:45.097Z,75.50
2019-01-14T18:27:17.177Z,75.40
2019-01-14T18:29:48.912Z,75.20
2019-01-14T18:32:23.770Z,78.50
2019-01-14T18:34:54.270Z,77.90
2019-01-14T18:37:30.146Z,78.00
2019-01-14T18:40:03.211Z,78.50
2019-01-14T18:42:34.094Z,78.50
2019-01-14T18:45:05.045Z,77.60
2019-01-14T18:47:36.970Z,77.90
2019-01-14T18:50:15.099Z,78.50
2019-01-14T18:52:47.771Z,78.10
2019-01-14T18:55:24.215Z,79.80
2019-01-14T18:58:01.722Z,81.50
2019-01-14T19:00:42.366Z,82.80
2019-01-14T19:03:16.872Z,84.20
2019-01-14T19:05:55.338Z,83.00
2019-01-14T19:08:27.397Z,82.20
2019-01-14T19:10:58.400Z,81.60
2019-01-14T19:13:29.265Z,80.20
2019-01-14T19:16:00.125Z,79.20
2019-01-14T19:18:30.749Z,79.80
2019-01-14T19:21:01.981Z,80.80
2019-01-14T19:23:33.608Z,80.50
2019-01-14T19:26:05.181Z,80.30
2019-01-14T19:28:37.994Z,80.00
2019-01-14T19:31:11.426Z,80.20
2019-01-14T19:33:41.981Z,80.80
2019-01-14T19:36:14.074Z,79.80
2019-01-14T19:38:44.985Z,79.30
2019-01-14T19:41:17.777Z,79.90
2019-01-14T19:43:48.992Z,80.90
2019-01-14T19:46:26.920Z,80.80
2019-01-14T19:48:57.608Z,82.00
2019-01-14T19:51:29.328Z,82.30
2019-01-14T19:54:00.050Z,82.60
2019-01-14T19:56:37.065Z,84.50
2019-01-14T19:59:10.782Z,85.00
2019-01-14T20:01:44.584Z,84.70
2019-01-14T20:04:15.089Z,84.90
2019-01-14T20:06:49.819Z,84.30
2019-01-14T20:09:21.971Z,83.50
2019-01-14T20:11:52.413Z,83.50
2019-01-14T20:14:22.992Z,83.00
2019-01-14T20:16:55.801Z,83.50
2019-01-14T20:19:26.418Z,83.00
2019-01-14T20:21:58.128Z,83.40
2019-01-14T20:24:31.703Z,82.60
2019-01-14T20:27:03.483Z,81.20
2019-01-14T20:29:33.991Z,81.10
2019-01-14T20:32:07.002Z,80.00
2019-01-14T20:34:37.434Z,79.00
2019-01-14T20:37:13.898Z,78.20
2019-01-14T20:39:40.160Z,76.80
2019-01-14T20:42:10.704Z,77.50
2019-01-14T20:44:42.482Z,80.50
2019-01-14T20:47:13.713Z,79.70
2019-01-14T20:49:44.299Z,80.10
2019-01-14T20:52:14.803Z,79.60
2019-01-14T20:54:45.267Z,78.80
2019-01-14T20:57:21.300Z,77.60
2019-01-14T20:59:53.078Z,78.30
2019-01-14T21:02:23.741Z,77.40
2019-01-14T21:04:58.630Z,78.10
2019-01-14T21:07:36.281Z,77.50
2019-01-14T21:10:09.224Z,76.90
2019-01-14T21:12:39.900Z,76.60
2019-01-14T21:15:12.964Z,76.00
2019-01-14T21:17:49.148Z,76.20
2019-01-14T21:20:24.418Z,76.60
2019-01-14T21:22:55.435Z,77.20
2019-01-14T21:25:26.656Z,77.40
2019-01-14T21:27:57.131Z,76.20
2019-01-14T21:30:27.801Z,75.80
2019-01-14T21:32:58.204Z,75.00
2019-01-14T21:35:29.601Z,74.80
2019-01-14T21:38:02.820Z,74.30
2019-01-14T21:40:33.995Z,73.90
2019-01-14T21:43:04.614Z,74.80
2019-01-14T21:45:35.149Z,74.50
2019-01-14T21:48:05.634Z,74.90
2019-01-14T21:50:36.025Z,75.50
2019-01-14T21:53:08.200Z,75.30
2019-01-14T21:55:38.853Z,76.00
2019-01-14T21:58:12.277Z,76.90
2019-01-14T22:00:44.803Z,77.40
2019-01-14T22:03:15.794Z,77.90
2019-01-14T22:05:46.155Z,78.00
2019-01-14T22:08:16.553Z,77.20
2019-01-14T22:10:47.281Z,76.80
2019-01-14T22:13:17.683Z,77.40
2019-01-14T22:15:48.110Z,77.40
2019-01-14T22:18:21.868Z,78.70
2019-01-14T22:20:52.312Z,79.10
2019-01-14T22:23:22.806Z,78.70
2019-01-14T22:25:54.297Z,78.80
2019-01-14T22:28:28.151Z,79.10
2019-01-14T22:30:58.060Z,79.80
2019-01-14T22:33:34.565Z,80.00
2019-01-14T22:36:00.706Z,79.70
2019-01-14T22:38:33.451Z,81.20
2019-01-14T22:41:06.950Z,82.90
2019-01-14T22:43:37.309Z,83.50
2019-01-14T22:46:17.234Z,84.40
2019-01-14T22:48:52.427Z,84.30
2019-01-14T22:51:25.817Z,85.80
2019-01-14T22:53:57.593Z,85.30
2019-01-14T22:56:28.431Z,85.30
2019-01-14T22:58:59.567Z,86.10
2019-01-14T23:01:34.295Z,86.10
2019-01-14T23:04:15.428Z,86.10
2019-01-14T23:06:48.656Z,86.10
2019-01-14T23:09:19.451Z,86.30
2019-01-14T23:11:53.107Z,87.20
2019-01-14T23:14:26.971Z,87.20
2019-01-14T23:16:56.957Z,87.60
2019-01-14T23:19:27.449Z,89.00
2019-01-14T23:21:57.835Z,88.90
2019-01-14T23:24:31.460Z,89.30
2019-01-14T23:27:02.141Z,90.20
2019-01-14T23:29:32.700Z,90.50
2019-01-14T23:32:03.220Z,90.20
2019-01-14T23:34:33.688Z,90.50
2019-01-14T23:37:04.033Z,90.10
2019-01-14T23:39:35.848Z,90.20
2019-01-14T23:42:06.872Z,90.50
2019-01-14T23:44:37.242Z,91.00
2019-01-14T23:47:08.890Z,90.90
2019-01-14T23:49:39.494Z,91.30
2019-01-14T23:52:09.960Z,91.70
2019-01-14T23:54:40.431Z,91.70
2019-01-14T23:57:11.095Z,92.30
2019-01-14T23:59:41.769Z,92.30
